| time (UTC) | temp F | wind direction | speed MPH | gust MPH | rain 1hr in | rain 24hr in | rain mn in | humidity % | barometer mb |
| 20260902204704 | 76 | 88 | 3.0 | 6.0 | 0.00 | 0.30 | 0.22 | 81 | 990.5 |
| 20260902204203 | 76 | 59 | 2.0 | 5.0 | 0.00 | 0.30 | 0.22 | 81 | 990.5 |
| 20260902203703 | 76 | 56 | 2.0 | 5.0 | 0.00 | 0.30 | 0.22 | 81 | 990.5 |
| 20260902203204 | 76 | 58 | 2.0 | 5.0 | 0.00 | 0.30 | 0.22 | 81 | 990.5 |
| 20260902201704 | 75 | 340 | 1.0 | 5.0 | 0.00 | 0.30 | 0.22 | 83 | 990.8 |
| 20260902201203 | 75 | 74 | 1.0 | 5.0 | 0.00 | 0.30 | 0.22 | 82 | 990.8 |
| 20260902200703 | 76 | 82 | 3.0 | 5.0 | 0.00 | 0.30 | 0.22 | 82 | 990.8 |
| 20260902194704 | 76 | 131 | 2.0 | 3.0 | 0.00 | 0.30 | 0.22 | 80 | 990.6 |
| 20260902193704 | 76 | 69 | 1.0 | 6.0 | 0.00 | 0.30 | 0.22 | 80 | 990.7 |
| 20260902193205 | 76 | 85 | 1.0 | 3.0 | 0.00 | 0.30 | 0.22 | 80 | 990.6 |
| 20260902191703 | 76 | 182 | 2.0 | 5.0 | 0.00 | 0.30 | 0.22 | 80 | 990.7 |
| 20260902191204 | 77 | 132 | 2.0 | 5.0 | 0.00 | 0.30 | 0.22 | 80 | 990.8 |
| 20260902190704 | 78 | 87 | 1.0 | 5.0 | 0.00 | 0.30 | 0.22 | 74 | 990.9 |
| 20260902190203 | 78 | 203 | 1.0 | 5.0 | 0.00 | 0.30 | 0.22 | 74 | 991.0 |
| 20260902184704 | 78 | 244 | 1.0 | 3.0 | 0.00 | 0.30 | 0.22 | 72 | 991.0 |
| 20260902184203 | 77 | 131 | 1.0 | 5.0 | 0.00 | 0.30 | 0.22 | 74 | 991.0 |
| 20260902183704 | 76 | 274 | 2.0 | 5.0 | 0.00 | 0.30 | 0.22 | 76 | 991.0 |
| 20260902183204 | 77 | 247 | 2.0 | 5.0 | 0.00 | 0.30 | 0.22 | 77 | 991.0 |
| 20260902181703 | 77 | 129 | 2.0 | 5.0 | 0.00 | 0.30 | 0.22 | 78 | 990.8 |
| 20260902181203 | 77 | 142 | 1.0 | 5.0 | 0.00 | 0.30 | 0.22 | 77 | 990.8 |
| 20260902180705 | 77 | 248 | 2.0 | 3.0 | 0.00 | 0.30 | 0.22 | 77 | 991.0 |
| 20260902174704 | 76 | 241 | 2.0 | 5.0 | 0.00 | 0.30 | 0.22 | 81 | 991.5 |
| 20260902174204 | 76 | 246 | 3.0 | 5.0 | 0.00 | 0.30 | 0.22 | 80 | 991.5 |
| 20260902173705 | 75 | 205 | 1.0 | 5.0 | 0.00 | 0.30 | 0.22 | 79 | 991.4 |
| 20260902173204 | 76 | 238 | 3.0 | 5.0 | 0.00 | 0.30 | 0.22 | 80 | 991.3 |
| 20260902171204 | 75 | 141 | 2.0 | 5.0 | 0.00 | 0.30 | 0.22 | 81 | 991.2 |
| 20260902170704 | 76 | 266 | 3.0 | 5.0 | 0.00 | 0.30 | 0.22 | 80 | 991.2 |
| 20260902170203 | 75 | 48 | 2.0 | 5.0 | 0.01 | 0.30 | 0.22 | 80 | 991.2 |
| 20260902164704 | 73 | 136 | 0.0 | 3.0 | 0.01 | 0.30 | 0.22 | 86 | 991.6 |
| 20260902164203 | 73 | 240 | 2.0 | 3.0 | 0.01 | 0.30 | 0.22 | 85 | 991.5 |
| 20260902163704 | 72 | 54 | 1.0 | 2.0 | 0.01 | 0.30 | 0.22 | 86 | 991.4 |
| 20260902163203 | 71 | 223 | 0.0 | 3.0 | 0.01 | 0.30 | 0.22 | 90 | 991.4 |
| 20260902161703 | 70 | 85 | 1.0 | 2.0 | 0.01 | 0.30 | 0.22 | 92 | 991.2 |
| 20260902161204 | 71 | 69 | 1.0 | 3.0 | 0.01 | 0.30 | 0.22 | 92 | 991.3 |
| 20260902160704 | 71 | 87 | 0.0 | 3.0 | 0.01 | 0.30 | 0.22 | 92 | 991.5 |
| 20260902160204 | 71 | 72 | 2.0 | 3.0 | 0.00 | 0.29 | 0.21 | 91 | 991.4 |
| 20260902154704 | 71 | 111 | 1.0 | 3.0 | 0.00 | 0.29 | 0.21 | 88 | 991.9 |
| 20260902154204 | 71 | 275 | 2.0 | 3.0 | 0.00 | 0.29 | 0.21 | 89 | 992.1 |
| 20260902153703 | 71 | 252 | 1.0 | 2.0 | 0.00 | 0.29 | 0.21 | 88 | 991.7 |
| 20260902153205 | 71 | 248 | 1.0 | 2.0 | 0.00 | 0.29 | 0.21 | 89 | 991.4 |
| 20260902151704 | 71 | 134 | 3.0 | 5.0 | 0.00 | 0.29 | 0.21 | 91 | 990.6 |
| 20260902151203 | 71 | 61 | 1.0 | 5.0 | 0.00 | 0.29 | 0.21 | 92 | 991.3 |
| 20260902150705 | 71 | 269 | 1.0 | 5.0 | 0.00 | 0.29 | 0.21 | 92 | 991.3 |
| 20260902150205 | 71 | 78 | 2.0 | 5.0 | 0.00 | 0.29 | 0.21 | 91 | 990.7 |
| 20260902144704 | 71 | 5 | 1.0 | 2.0 | 0.00 | 0.29 | 0.21 | 91 | 991.4 |
| 20260902144205 | 70 | 62 | 1.0 | 2.0 | 0.00 | 0.29 | 0.21 | 92 | 991.2 |
| 20260902143704 | 70 | 19 | 1.0 | 2.0 | 0.00 | 0.29 | 0.21 | 92 | 991.5 |
| 20260902141704 | 69 | 317 | 1.0 | 3.0 | 0.00 | 0.29 | 0.21 | 93 | 991.9 |
| 20260902141204 | 69 | 287 | 2.0 | 5.0 | 0.00 | 0.29 | 0.21 | 93 | 991.9 |
| 20260902140204 | 68 | 307 | 1.0 | 2.0 | 0.00 | 0.29 | 0.21 | 94 | 991.5 |
| 20260902134703 | 68 | 110 | 0.0 | 2.0 | 0.00 | 0.29 | 0.21 | 94 | 991.5 |
| 20260902134204 | 68 | 110 | 0.0 | 2.0 | 0.00 | 0.29 | 0.21 | 95 | 991.6 |
| 20260902133704 | 67 | 99 | 1.0 | 2.0 | 0.00 | 0.29 | 0.21 | 95 | 991.6 |
| 20260902133203 | 67 | 53 | 0.0 | 2.0 | 0.00 | 0.29 | 0.21 | 94 | 991.9 |
| 20260902131704 | 67 | 65 | 0.0 | 3.0 | 0.00 | 0.29 | 0.21 | 94 | 991.8 |
| 20260902131204 | 67 | 65 | 1.0 | 3.0 | 0.00 | 0.29 | 0.21 | 94 | 991.7 |
| 20260902130704 | 66 | 47 | 0.0 | 2.0 | 0.00 | 0.29 | 0.21 | 95 | 991.5 |
| 20260902130204 | 66 | 93 | 1.0 | 3.0 | 0.00 | 0.29 | 0.21 | 95 | 991.4 |
| 20260902124704 | 66 | 79 | 1.0 | 2.0 | 0.00 | 0.29 | 0.21 | 95 | 991.5 |
| 20260902124203 | 66 | 72 | 1.0 | 2.0 | 0.00 | 0.29 | 0.21 | 95 | 991.6 |
| 20260902123204 | 66 | 63 | 2.0 | 2.0 | 0.00 | 0.29 | 0.21 | 95 | 991.9 |
| 20260902121703 | 65 | 74 | 1.0 | 2.0 | 0.00 | 0.29 | 0.21 | 95 | 991.8 |
| 20260902121204 | 65 | 70 | 1.0 | 2.0 | 0.00 | 0.29 | 0.21 | 95 | 991.9 |
| 20260902120703 | 65 | 70 | 1.0 | 2.0 | 0.10 | 0.29 | 0.21 | 95 | 992.1 |
| 20260902120203 | 65 | 70 | 2.0 | 2.0 | 0.04 | 0.29 | 0.21 | 95 | 992.0 |
| 20260902114704 | 65 | 25 | 1.0 | 3.0 | 0.16 | 0.29 | 0.21 | 94 | 992.3 |
| 20260902114203 | 65 | 24 | 2.0 | 5.0 | 0.16 | 0.29 | 0.21 | 94 | 992.3 |
| 20260902111703 | 66 | 322 | 2.0 | 6.0 | 0.21 | 0.29 | 0.27 | 94 | 992.4 |
| 20260902111204 | 66 | 47 | 2.0 | 5.0 | 0.21 | 0.29 | 0.27 | 93 | 992.3 |
| 20260902110704 | 67 | 2 | 3.0 | 7.0 | 0.21 | 0.29 | 0.27 | 93 | 992.9 |
| 20260902110204 | 68 | 357 | 3.0 | 8.0 | 0.12 | 0.19 | 0.17 | 93 | 992.8 |
| 20260902104705 | 72 | 303 | 9.0 | 23.0 | 0.00 | 0.07 | 0.05 | 84 | 995.0 |
| 20260902104204 | 72 | 301 | 10.0 | 23.0 | 0.00 | 0.07 | 0.05 | 86 | 994.4 |
| 20260902103705 | 72 | 297 | 9.0 | 20.0 | 0.00 | 0.07 | 0.05 | 91 | 993.9 |
| 20260902103204 | 72 | 291 | 1.0 | 3.0 | 0.00 | 0.07 | 0.05 | 95 | 991.2 |
| 20260902101704 | 72 | 52 | 0.0 | 0.0 | 0.00 | 0.07 | 0.05 | 94 | 990.5 |
| 20260902101204 | 72 | 52 | 0.0 | 0.0 | 0.00 | 0.07 | 0.05 | 94 | 990.5 |
| 20260902100203 | 72 | 52 | 0.0 | 1.0 | 0.00 | 0.07 | 0.05 | 94 | 990.5 |
| 20260902094703 | 73 | 62 | 2.0 | 2.0 | 0.00 | 0.07 | 0.05 | 94 | 990.5 |
| 20260902093703 | 73 | 299 | 0.0 | 1.0 | 0.00 | 0.07 | 0.05 | 93 | 990.6 |
| 20260902093204 | 73 | 299 | 0.0 | 2.0 | 0.00 | 0.07 | 0.05 | 92 | 990.9 |
| 20260902091203 | 73 | 260 | 0.0 | 2.0 | 0.01 | 0.07 | 0.05 | 93 | 990.7 |
| 20260902090703 | 73 | 248 | 0.0 | 1.0 | 0.01 | 0.07 | 0.05 | 92 | 990.7 |
| 20260902090203 | 74 | 248 | 0.0 | 2.0 | 0.00 | 0.07 | 0.05 | 93 | 990.8 |
| 20260902084704 | 75 | 80 | 0.0 | 2.0 | 0.01 | 0.07 | 0.05 | 92 | 990.4 |
| 20260902084204 | 75 | 71 | 0.0 | 2.0 | 0.01 | 0.07 | 0.05 | 90 | 990.6 |
| 20260902083705 | 75 | 309 | 1.0 | 2.0 | 0.02 | 0.07 | 0.05 | 90 | 990.8 |
| 20260902083204 | 75 | 321 | 1.0 | 2.0 | 0.00 | 0.07 | 0.05 | 92 | 990.8 |
| 20260902081204 | 76 | 359 | 1.0 | 2.0 | 0.04 | 0.06 | 0.04 | 93 | 990.3 |
| 20260902074704 | 77 | 244 | 2.0 | 5.0 | 0.04 | 0.06 | 0.04 | 92 | 991.7 |
| 20260902074204 | 77 | 237 | 2.0 | 3.0 | 0.04 | 0.05 | 0.04 | 92 | 991.7 |
| 20260902073704 | 77 | 272 | 3.0 | 5.0 | 0.04 | 0.05 | 0.04 | 92 | 991.8 |
| 20260902073203 | 78 | 266 | 2.0 | 5.0 | 0.05 | 0.05 | 0.05 | 91 | 991.5 |
| 20260902071703 | 78 | 164 | 0.0 | 2.0 | 0.00 | 0.00 | 0.00 | 89 | 991.0 |
| 20260902071205 | 78 | 238 | 0.0 | 2.0 | 0.00 | 0.00 | 0.00 | 89 | 990.9 |
| 20260902070205 | 78 | 222 | 0.0 | 2.0 | 0.00 | 0.00 | 0.00 | 88 | 990.6 |
| 20260902063704 | 78 | 274 | 2.0 | 3.0 | 0.00 | 0.00 | 0.00 | 88 | 990.9 |
| 20260902063204 | 78 | 300 | 1.0 | 3.0 | 0.00 | 0.00 | 0.00 | 88 | 990.5 |
| 20260902061703 | 79 | 271 | 1.0 | 2.0 | 0.00 | 0.00 | 0.00 | 89 | 990.6 |
| 20260902061204 | 79 | 259 | 0.0 | 2.0 | 0.00 | 0.00 | 0.00 | 89 | 990.7 |
| 20260902060704 | 79 | 278 | 1.0 | 2.0 | 0.00 | 0.00 | 0.00 | 89 | 990.8 |
| 20260902060204 | 79 | 262 | 1.0 | 3.0 | 0.00 | 0.00 | 0.00 | 89 | 990.9 |
| 20260902054703 | 79 | 286 | 2.0 | 3.0 | 0.00 | 0.00 | 0.00 | 90 | 990.5 |
| 20260902054205 | 79 | 289 | 3.0 | 3.0 | 0.00 | 0.00 | 0.00 | 91 | 990.5 |
| 20260902053704 | 79 | 263 | 2.0 | 3.0 | 0.00 | 0.00 | 0.00 | 91 | 990.7 |
| 20260902053204 | 79 | 214 | 0.0 | 3.0 | 0.00 | 0.00 | 0.00 | 91 | 990.6 |
| 20260902050203 | 80 | 246 | 1.0 | 3.0 | 0.00 | 0.00 | 0.00 | 90 | 990.3 |
| 20260902044704 | 80 | 267 | 3.0 | 5.0 | 0.00 | 0.15 | 0.00 | 90 | 990.4 |
| 20260902044205 | 80 | 257 | 2.0 | 3.0 | 0.00 | 0.15 | 0.00 | 90 | 990.5 |
| 20260902043704 | 80 | 268 | 2.0 | 3.0 | 0.00 | 0.15 | 0.00 | 90 | 990.4 |
| 20260902043205 | 79 | 267 | 1.0 | 3.0 | 0.00 | 0.15 | 0.00 | 90 | 990.5 |
| 20260902041205 | 78 | 240 | 0.0 | 2.0 | 0.00 | 0.15 | 0.00 | 91 | 990.5 |
| 20260902040704 | 78 | 262 | 0.0 | 2.0 | 0.00 | 0.15 | 0.00 | 91 | 990.5 |
| 20260902040204 | 77 | 280 | 0.0 | 0.0 | 0.00 | 0.15 | 0.00 | 91 | 990.5 |
| 20260902034703 | 77 | 280 | 0.0 | 1.0 | 0.00 | 0.15 | 0.00 | 90 | 990.4 |
| 20260902033703 | 77 | 105 | 0.0 | 0.0 | 0.00 | 0.15 | 0.00 | 90 | 990.3 |
| 20260902031703 | 78 | 105 | 0.0 | 0.0 | 0.00 | 0.15 | 0.00 | 90 | 990.2 |
| 20260902031203 | 78 | 105 | 0.0 | 1.0 | 0.00 | 0.15 | 0.00 | 90 | 990.1 |
| 20260902030703 | 78 | 105 | 0.0 | 2.0 | 0.00 | 0.15 | 0.00 | 90 | 990.2 |
| 20260902030204 | 78 | 244 | 1.0 | 2.0 | 0.00 | 0.15 | 0.00 | 90 | 990.2 |
| 20260902024703 | 77 | 116 | 1.0 | 3.0 | 0.00 | 0.15 | 0.00 | 89 | 990.3 |
| 20260902024204 | 77 | 76 | 1.0 | 2.0 | 0.00 | 0.15 | 0.00 | 90 | 990.3 |
| 20260902023704 | 77 | 132 | 1.0 | 2.0 | 0.00 | 0.15 | 0.00 | 90 | 990.3 |
| 20260902023204 | 77 | 139 | 0.0 | 2.0 | 0.00 | 0.15 | 0.00 | 90 | 990.2 |
| 20260902021704 | 77 | 125 | 0.0 | 1.0 | 0.00 | 0.15 | 0.00 | 90 | 990.3 |
| 20260902021204 | 77 | 134 | 0.0 | 1.0 | 0.00 | 0.15 | 0.00 | 90 | 990.3 |
| 20260902020704 | 77 | 167 | 0.0 | 0.0 | 0.00 | 0.15 | 0.00 | 90 | 990.3 |
| 20260902020203 | 77 | 167 | 0.0 | 0.0 | 0.00 | 0.15 | 0.00 | 90 | 990.3 |
| 20260902014703 | 77 | 116 | 0.0 | 1.0 | 0.00 | 0.15 | 0.00 | 90 | 990.3 |
| 20260902013703 | 77 | 114 | 0.0 | 0.0 | 0.00 | 0.15 | 0.00 | 90 | 990.1 |
| 20260902011704 | 75 | 235 | 1.0 | 1.0 | 0.00 | 0.15 | 0.00 | 91 | 990.0 |
| 20260902010204 | 74 | 161 | 0.0 | 1.0 | 0.00 | 0.15 | 0.00 | 93 | 989.7 |
| 20260902004704 | 74 | 233 | 0.0 | 1.0 | 0.00 | 0.15 | 0.00 | 92 | 989.4 |
| 20260902004204 | 74 | 236 | 0.0 | 1.0 | 0.00 | 0.15 | 0.00 | 92 | 989.4 |
| 20260902003203 | 74 | 171 | 1.0 | 1.0 | 0.00 | 0.15 | 0.00 | 92 | 989.4 |
| 20260902001703 | 75 | 264 | 0.0 | 2.0 | 0.00 | 0.15 | 0.00 | 92 | 989.4 |
| 20260902001205 | 75 | 302 | 0.0 | 2.0 | 0.00 | 0.15 | 0.00 | 92 | 989.5 |
| 20260902000704 | 76 | 144 | 1.0 | 2.0 | 0.00 | 0.15 | 0.00 | 92 | 989.5 |
| 20260902000204 | 76 | 138 | 0.0 | 2.0 | 0.00 | 0.15 | 0.00 | 92 | 989.6 |
| 20260901234704 | 76 | 106 | 2.0 | 3.0 | 0.00 | 0.15 | 0.00 | 92 | 989.8 |
| 20260901234205 | 76 | 192 | 1.0 | 3.0 | 0.00 | 0.15 | 0.00 | 92 | 989.9 |
| 20260901233705 | 77 | 153 | 2.0 | 3.0 | 0.00 | 0.15 | 0.00 | 92 | 989.8 |
| 20260901233204 | 77 | 197 | 1.0 | 3.0 | 0.00 | 0.15 | 0.00 | 92 | 989.8 |
| 20260901231705 | 77 | 132 | 2.0 | 3.0 | 0.00 | 0.15 | 0.00 | 92 | 989.9 |
| 20260901231204 | 77 | 235 | 1.0 | 3.0 | 0.00 | 0.15 | 0.00 | 92 | 990.0 |
| 20260901230704 | 77 | 176 | 2.0 | 3.0 | 0.00 | 0.15 | 0.00 | 92 | 990.0 |
| 20260901224704 | 79 | 173 | 2.0 | 5.0 | 0.00 | 0.15 | 0.00 | 90 | 990.0 |
| 20260901224204 | 79 | 248 | 1.0 | 5.0 | 0.00 | 0.15 | 0.00 | 90 | 990.0 |
| 20260901223704 | 79 | 160 | 2.0 | 5.0 | 0.00 | 0.15 | 0.00 | 89 | 990.0 |
| 20260901223206 | 80 | 174 | 2.0 | 5.0 | 0.00 | 0.15 | 0.00 | 89 | 989.9 |
| 20260901221204 | 80 | 196 | 2.0 | 5.0 | 0.00 | 0.15 | 0.00 | 89 | 990.0 |
| 20260901220704 | 79 | 138 | 3.0 | 5.0 | 0.00 | 0.15 | 0.00 | 89 | 990.0 |
| 20260901220205 | 80 | 146 | 3.0 | 5.0 | 0.00 | 0.15 | 0.00 | 89 | 990.1 |
| 20260901214203 | 79 | 105 | 2.0 | 6.0 | 0.00 | 0.15 | 0.00 | 89 | 990.3 |
| 20260901213203 | 79 | 62 | 3.0 | 5.0 | 0.00 | 0.15 | 0.00 | 90 | 990.3 |
| 20260901211704 | 79 | 110 | 3.0 | 5.0 | 0.00 | 0.15 | 0.00 | 89 | 990.4 |
| 20260901211205 | 79 | 101 | 1.0 | 5.0 | 0.00 | 0.15 | 0.00 | 90 | 990.4 |
| 20260901210703 | 79 | 67 | 3.0 | 5.0 | 0.00 | 0.15 | 0.00 | 90 | 990.5 |
| 20260901210204 | 78 | 110 | 1.0 | 3.0 | 0.00 | 0.15 | 0.00 | 90 | 990.5 |